sensor_id;sensor_type;location;lat;lon;timestamp;pressure;altitude;pressure_sealevel;temperature;humidity
41040;BME280;48586;50.122;18.972;2024-03-07T00:00:45;99086.63;;;2.92;57.25
41040;BME280;48586;50.122;18.972;2024-03-07T00:03:55;99087.66;;;2.89;57.41
41040;BME280;48586;50.122;18.972;2024-03-07T00:07:00;99091.94;;;2.92;57.65
41040;BME280;48586;50.122;18.972;2024-03-07T00:10:06;99084.75;;;2.94;57.31
41040;BME280;48586;50.122;18.972;2024-03-07T00:13:15;99092.25;;;3.01;56.89
41040;BME280;48586;50.122;18.972;2024-03-07T00:16:21;99076.19;;;3.04;56.90
41040;BME280;48586;50.122;18.972;2024-03-07T00:19:25;99091.03;;;3.07;56.98
41040;BME280;48586;50.122;18.972;2024-03-07T00:22:31;99083.69;;;3.12;56.75
41040;BME280;48586;50.122;18.972;2024-03-07T00:25:36;99079.06;;;3.16;56.68
41040;BME280;48586;50.122;18.972;2024-03-07T00:28:44;99083.28;;;3.20;56.47
41040;BME280;48586;50.122;18.972;2024-03-07T00:31:49;99090.94;;;3.24;56.44
41040;BME280;48586;50.122;18.972;2024-03-07T00:34:55;99081.09;;;3.26;56.32
41040;BME280;48586;50.122;18.972;2024-03-07T00:38:00;99081.94;;;3.27;56.33
41040;BME280;48586;50.122;18.972;2024-03-07T00:41:06;99082.66;;;3.30;56.16
41040;BME280;48586;50.122;18.972;2024-03-07T00:44:14;99086.06;;;3.32;55.90
41040;BME280;48586;50.122;18.972;2024-03-07T00:47:19;99081.63;;;3.33;56.11
41040;BME280;48586;50.122;18.972;2024-03-07T00:50:24;99084.19;;;3.34;56.16
41040;BME280;48586;50.122;18.972;2024-03-07T00:53:29;99089.66;;;3.31;55.72
41040;BME280;48586;50.122;18.972;2024-03-07T00:56:34;99080.16;;;3.27;56.01
41040;BME280;48586;50.122;18.972;2024-03-07T00:59:42;99081.28;;;3.23;56.16
41040;BME280;48586;50.122;18.972;2024-03-07T01:02:47;99087.72;;;3.19;56.25
41040;BME280;48586;50.122;18.972;2024-03-07T01:05:55;99077.13;;;3.19;56.24
41040;BME280;48586;50.122;18.972;2024-03-07T01:09:00;99072.75;;;3.18;56.20
41040;BME280;48586;50.122;18.972;2024-03-07T01:12:05;99078.50;;;3.10;56.05
41040;BME280;48586;50.122;18.972;2024-03-07T01:15:13;99074.31;;;3.06;56.39
41040;BME280;48586;50.122;18.972;2024-03-07T01:18:19;99073.56;;;3.04;56.00
41040;BME280;48586;50.122;18.972;2024-03-07T01:21:23;99075.53;;;3.01;55.84
41040;BME280;48586;50.122;18.972;2024-03-07T01:24:29;99063.25;;;3.00;56.25
41040;BME280;48586;50.122;18.972;2024-03-07T01:27:34;99065.63;;;3.04;56.15
41040;BME280;48586;50.122;18.972;2024-03-07T01:30:42;99061.88;;;3.08;56.18
41040;BME280;48586;50.122;18.972;2024-03-07T01:33:47;99063.28;;;3.14;55.99
41040;BME280;48586;50.122;18.972;2024-03-07T01:36:52;99068.31;;;3.19;56.08
41040;BME280;48586;50.122;18.972;2024-03-07T01:39:56;99061.16;;;3.21;55.85
41040;BME280;48586;50.122;18.972;2024-03-07T01:43:07;99068.41;;;3.17;55.75
41040;BME280;48586;50.122;18.972;2024-03-07T01:46:14;99069.72;;;3.10;55.85
41040;BME280;48586;50.122;18.972;2024-03-07T01:49:21;99066.47;;;3.05;56.05
41040;BME280;48586;50.122;18.972;2024-03-07T01:52:26;99062.97;;;3.04;56.24
41040;BME280;48586;50.122;18.972;2024-03-07T01:55:31;99054.28;;;3.02;56.13
41040;BME280;48586;50.122;18.972;2024-03-07T01:58:37;99062.97;;;3.04;56.32
41040;BME280;48586;50.122;18.972;2024-03-07T02:01:45;99059.38;;;3.05;56.37
41040;BME280;48586;50.122;18.972;2024-03-07T02:04:49;99057.59;;;3.06;56.16
41040;BME280;48586;50.122;18.972;2024-03-07T02:07:54;99058.53;;;3.05;55.95
41040;BME280;48586;50.122;18.972;2024-03-07T02:10:59;99056.91;;;3.02;55.72
41040;BME280;48586;50.122;18.972;2024-03-07T02:14:04;99048.88;;;3.04;56.24
41040;BME280;48586;50.122;18.972;2024-03-07T02:17:12;99047.00;;;3.06;56.16
41040;BME280;48586;50.122;18.972;2024-03-07T02:20:17;99055.53;;;3.11;55.98
41040;BME280;48586;50.122;18.972;2024-03-07T02:23:24;99049.31;;;3.12;55.85
41040;BME280;48586;50.122;18.972;2024-03-07T02:26:30;99049.13;;;3.15;55.54
41040;BME280;48586;50.122;18.972;2024-03-07T02:29:34;99046.47;;;3.15;55.24
41040;BME280;48586;50.122;18.972;2024-03-07T02:32:40;99047.41;;;3.14;55.35
41040;BME280;48586;50.122;18.972;2024-03-07T02:35:50;99046.66;;;3.12;55.41
41040;BME280;48586;50.122;18.972;2024-03-07T02:38:58;99051.19;;;3.10;54.94
41040;BME280;48586;50.122;18.972;2024-03-07T02:42:03;99041.63;;;3.07;55.08
41040;BME280;48586;50.122;18.972;2024-03-07T02:45:09;99038.13;;;3.07;55.20
41040;BME280;48586;50.122;18.972;2024-03-07T02:48:16;99040.78;;;3.07;55.20
41040;BME280;48586;50.122;18.972;2024-03-07T02:51:21;99041.91;;;3.03;55.04
41040;BME280;48586;50.122;18.972;2024-03-07T02:54:30;99046.88;;;2.93;55.01
41040;BME280;48586;50.122;18.972;2024-03-07T02:57:37;99056.88;;;2.88;55.23
41040;BME280;48586;50.122;18.972;2024-03-07T03:00:42;99048.31;;;2.83;55.76
41040;BME280;48586;50.122;18.972;2024-03-07T03:03:49;99043.97;;;2.82;55.55
41040;BME280;48586;50.122;18.972;2024-03-07T03:06:53;99057.28;;;2.80;55.63
41040;BME280;48586;50.122;18.972;2024-03-07T03:10:01;99041.59;;;2.77;55.64
41040;BME280;48586;50.122;18.972;2024-03-07T03:13:11;99044.59;;;2.71;55.76
41040;BME280;48586;50.122;18.972;2024-03-07T03:16:18;99037.78;;;2.67;55.64
41040;BME280;48586;50.122;18.972;2024-03-07T03:19:23;99038.72;;;2.66;55.70
41040;BME280;48586;50.122;18.972;2024-03-07T03:22:28;99044.00;;;2.66;55.77
41040;BME280;48586;50.122;18.972;2024-03-07T03:25:35;99048.34;;;2.67;55.66
41040;BME280;48586;50.122;18.972;2024-03-07T03:28:41;99041.19;;;2.69;55.70
41040;BME280;48586;50.122;18.972;2024-03-07T03:31:46;99046.19;;;2.74;55.78
41040;BME280;48586;50.122;18.972;2024-03-07T03:34:51;99046.97;;;2.76;55.38
41040;BME280;48586;50.122;18.972;2024-03-07T03:37:56;99048.94;;;2.72;55.16
41040;BME280;48586;50.122;18.972;2024-03-07T03:41:04;99044.69;;;2.70;55.14
41040;BME280;48586;50.122;18.972;2024-03-07T03:44:08;99051.94;;;2.66;55.60
41040;BME280;48586;50.122;18.972;2024-03-07T03:47:13;99046.91;;;2.62;55.34
41040;BME280;48586;50.122;18.972;2024-03-07T03:50:18;99053.31;;;2.58;55.58
41040;BME280;48586;50.122;18.972;2024-03-07T03:53:24;99049.91;;;2.56;55.47
41040;BME280;48586;50.122;18.972;2024-03-07T03:56:32;99044.84;;;2.51;55.74
41040;BME280;48586;50.122;18.972;2024-03-07T03:59:37;99046.56;;;2.52;55.36
41040;BME280;48586;50.122;18.972;2024-03-07T04:02:42;99045.88;;;2.48;55.42
41040;BME280;48586;50.122;18.972;2024-03-07T04:05:50;99048.75;;;2.44;55.37
41040;BME280;48586;50.122;18.972;2024-03-07T04:08:56;99048.84;;;2.42;55.35
41040;BME280;48586;50.122;18.972;2024-03-07T04:12:04;99055.44;;;2.35;55.29
41040;BME280;48586;50.122;18.972;2024-03-07T04:15:13;99052.88;;;2.34;55.41
41040;BME280;48586;50.122;18.972;2024-03-07T04:18:19;99062.50;;;2.35;55.17
41040;BME280;48586;50.122;18.972;2024-03-07T04:21:24;99056.44;;;2.33;54.95
41040;BME280;48586;50.122;18.972;2024-03-07T04:24:30;99058.94;;;2.36;55.00
41040;BME280;48586;50.122;18.972;2024-03-07T04:27:40;99064.44;;;2.31;54.80
41040;BME280;48586;50.122;18.972;2024-03-07T04:30:45;99061.13;;;2.28;54.87
41040;BME280;48586;50.122;18.972;2024-03-07T04:33:51;99058.31;;;2.31;54.46
41040;BME280;48586;50.122;18.972;2024-03-07T04:36:56;99059.16;;;2.31;54.25
41040;BME280;48586;50.122;18.972;2024-03-07T04:40:03;99060.28;;;2.27;54.40
41040;BME280;48586;50.122;18.972;2024-03-07T04:43:19;99062.16;;;2.25;54.08
41040;BME280;48586;50.122;18.972;2024-03-07T04:46:24;99070.50;;;2.17;54.42
41040;BME280;48586;50.122;18.972;2024-03-07T04:49:30;99062.75;;;2.14;54.18
41040;BME280;48586;50.122;18.972;2024-03-07T04:52:36;99063.81;;;2.10;54.28
41040;BME280;48586;50.122;18.972;2024-03-07T04:55:42;99072.84;;;2.06;54.37
41040;BME280;48586;50.122;18.972;2024-03-07T04:58:49;99079.84;;;2.07;54.39
41040;BME280;48586;50.122;18.972;2024-03-07T05:01:56;99076.59;;;2.02;54.56
41040;BME280;48586;50.122;18.972;2024-03-07T05:05:01;99070.44;;;2.02;54.88
41040;BME280;48586;50.122;18.972;2024-03-07T05:08:07;99071.25;;;2.04;54.65
41040;BME280;48586;50.122;18.972;2024-03-07T05:11:11;99074.97;;;2.00;54.33
41040;BME280;48586;50.122;18.972;2024-03-07T05:14:21;99079.38;;;1.99;54.29
41040;BME280;48586;50.122;18.972;2024-03-07T05:17:27;99077.84;;;1.95;54.33
41040;BME280;48586;50.122;18.972;2024-03-07T05:20:36;99081.19;;;1.99;54.75
41040;BME280;48586;50.122;18.972;2024-03-07T05:23:41;99077.69;;;1.98;54.55
41040;BME280;48586;50.122;18.972;2024-03-07T05:26:46;99092.94;;;1.93;54.58
41040;BME280;48586;50.122;18.972;2024-03-07T05:29:53;99088.81;;;1.87;54.64
41040;BME280;48586;50.122;18.972;2024-03-07T05:32:59;99088.91;;;1.86;54.43
41040;BME280;48586;50.122;18.972;2024-03-07T05:36:05;99098.53;;;1.87;54.23
41040;BME280;48586;50.122;18.972;2024-03-07T05:39:18;99101.84;;;1.90;53.98
41040;BME280;48586;50.122;18.972;2024-03-07T05:42:22;99107.06;;;1.92;53.80
41040;BME280;48586;50.122;18.972;2024-03-07T05:45:30;99107.94;;;1.92;53.63
41040;BME280;48586;50.122;18.972;2024-03-07T05:48:37;99103.59;;;1.91;53.83
41040;BME280;48586;50.122;18.972;2024-03-07T05:51:42;99105.44;;;1.89;53.85
41040;BME280;48586;50.122;18.972;2024-03-07T05:54:47;99107.47;;;1.84;53.56
41040;BME280;48586;50.122;18.972;2024-03-07T05:57:54;99112.97;;;1.80;53.75
41040;BME280;48586;50.122;18.972;2024-03-07T06:01:03;99107.78;;;1.78;53.87
41040;BME280;48586;50.122;18.972;2024-03-07T06:04:11;99105.84;;;1.82;54.06
41040;BME280;48586;50.122;18.972;2024-03-07T06:07:17;99110.78;;;1.88;54.02
41040;BME280;48586;50.122;18.972;2024-03-07T06:10:23;99106.91;;;1.95;53.59
41040;BME280;48586;50.122;18.972;2024-03-07T06:13:29;99111.84;;;2.01;53.44
41040;BME280;48586;50.122;18.972;2024-03-07T06:16:39;99109.84;;;2.06;53.68
41040;BME280;48586;50.122;18.972;2024-03-07T06:19:44;99116.06;;;2.05;53.33
41040;BME280;48586;50.122;18.972;2024-03-07T06:22:52;99117.69;;;2.08;53.09
41040;BME280;48586;50.122;18.972;2024-03-07T06:25:58;99115.81;;;2.10;53.29
41040;BME280;48586;50.122;18.972;2024-03-07T06:29:16;99115.88;;;2.08;53.02
41040;BME280;48586;50.122;18.972;2024-03-07T06:32:24;99125.97;;;2.17;53.00
41040;BME280;48586;50.122;18.972;2024-03-07T06:35:31;99129.78;;;2.12;52.30
41040;BME280;48586;50.122;18.972;2024-03-07T06:38:39;99128.25;;;2.08;52.99
41040;BME280;48586;50.122;18.972;2024-03-07T06:41:45;99133.34;;;2.11;52.97
41040;BME280;48586;50.122;18.972;2024-03-07T06:44:51;99136.72;;;2.14;52.80
41040;BME280;48586;50.122;18.972;2024-03-07T06:48:00;99137.47;;;2.16;52.50
41040;BME280;48586;50.122;18.972;2024-03-07T06:51:07;99136.53;;;2.17;52.24
41040;BME280;48586;50.122;18.972;2024-03-07T06:54:13;99134.06;;;2.14;52.49
41040;BME280;48586;50.122;18.972;2024-03-07T06:57:18;99139.00;;;2.20;52.68
41040;BME280;48586;50.122;18.972;2024-03-07T07:00:25;99137.22;;;2.21;52.70
41040;BME280;48586;50.122;18.972;2024-03-07T07:03:35;99145.78;;;2.26;52.35
41040;BME280;48586;50.122;18.972;2024-03-07T07:06:41;99145.78;;;2.26;52.42
41040;BME280;48586;50.122;18.972;2024-03-07T07:09:48;99147.22;;;2.32;52.65
41040;BME280;48586;50.122;18.972;2024-03-07T07:12:56;99139.81;;;2.38;52.25
41040;BME280;48586;50.122;18.972;2024-03-07T07:16:03;99145.72;;;2.43;52.43
41040;BME280;48586;50.122;18.972;2024-03-07T07:19:12;99139.94;;;2.52;52.40
41040;BME280;48586;50.122;18.972;2024-03-07T07:22:18;99149.25;;;2.60;51.95
41040;BME280;48586;50.122;18.972;2024-03-07T07:25:25;99152.81;;;2.59;51.46
41040;BME280;48586;50.122;18.972;2024-03-07T07:28:31;99146.69;;;2.58;51.93
41040;BME280;48586;50.122;18.972;2024-03-07T07:31:39;99147.78;;;2.54;51.90
41040;BME280;48586;50.122;18.972;2024-03-07T07:34:51;99150.28;;;2.57;51.63
41040;BME280;48586;50.122;18.972;2024-03-07T07:37:58;99149.41;;;2.57;51.24
41040;BME280;48586;50.122;18.972;2024-03-07T07:41:03;99154.78;;;2.55;51.48
41040;BME280;48586;50.122;18.972;2024-03-07T07:44:10;99147.00;;;2.52;51.94
41040;BME280;48586;50.122;18.972;2024-03-07T07:47:16;99144.63;;;2.47;51.33
41040;BME280;48586;50.122;18.972;2024-03-07T07:50:25;99150.22;;;2.41;51.48
41040;BME280;48586;50.122;18.972;2024-03-07T07:53:32;99148.69;;;2.37;51.77
41040;BME280;48586;50.122;18.972;2024-03-07T07:56:40;99155.22;;;2.30;51.75
41040;BME280;48586;50.122;18.972;2024-03-07T07:59:45;99143.03;;;2.28;51.88
41040;BME280;48586;50.122;18.972;2024-03-07T08:02:54;99147.47;;;2.27;51.94
41040;BME280;48586;50.122;18.972;2024-03-07T08:06:02;99147.47;;;2.27;51.98
41040;BME280;48586;50.122;18.972;2024-03-07T08:09:09;99148.41;;;2.26;51.92
41040;BME280;48586;50.122;18.972;2024-03-07T08:12:17;99150.22;;;2.25;51.92
41040;BME280;48586;50.122;18.972;2024-03-07T08:15:25;99149.44;;;2.23;52.16
41040;BME280;48586;50.122;18.972;2024-03-07T08:18:32;99147.66;;;2.24;51.80
41040;BME280;48586;50.122;18.972;2024-03-07T08:21:41;99158.03;;;2.27;51.94
41040;BME280;48586;50.122;18.972;2024-03-07T08:24:47;99153.69;;;2.26;52.03
41040;BME280;48586;50.122;18.972;2024-03-07T08:27:56;99159.84;;;2.27;52.18
41040;BME280;48586;50.122;18.972;2024-03-07T08:31:02;99158.03;;;2.27;52.01
41040;BME280;48586;50.122;18.972;2024-03-07T08:34:08;99159.91;;;2.25;51.82
41040;BME280;48586;50.122;18.972;2024-03-07T08:37:18;99163.91;;;2.16;52.03
41040;BME280;48586;50.122;18.972;2024-03-07T08:40:27;99160.91;;;2.22;52.18
41040;BME280;48586;50.122;18.972;2024-03-07T08:43:34;99168.16;;;2.19;51.89
41040;BME280;48586;50.122;18.972;2024-03-07T08:46:41;99163.03;;;2.16;52.47
41040;BME280;48586;50.122;18.972;2024-03-07T08:49:46;99166.53;;;2.16;52.30
41040;BME280;48586;50.122;18.972;2024-03-07T08:52:55;99171.81;;;2.16;51.91
41040;BME280;48586;50.122;18.972;2024-03-07T08:56:01;99174.28;;;2.19;51.90
41040;BME280;48586;50.122;18.972;2024-03-07T08:59:08;99163.50;;;2.24;52.37
41040;BME280;48586;50.122;18.972;2024-03-07T09:02:17;99167.38;;;2.34;52.49
41040;BME280;48586;50.122;18.972;2024-03-07T09:05:24;99175.59;;;2.45;52.19
41040;BME280;48586;50.122;18.972;2024-03-07T09:08:33;99180.13;;;2.59;51.86
41040;BME280;48586;50.122;18.972;2024-03-07T09:11:40;99180.03;;;2.61;50.95
41040;BME280;48586;50.122;18.972;2024-03-07T09:14:47;99180.34;;;2.54;50.73
41040;BME280;48586;50.122;18.972;2024-03-07T09:17:54;99180.44;;;2.53;50.97
41040;BME280;48586;50.122;18.972;2024-03-07T09:21:00;99181.28;;;2.53;51.65
41040;BME280;48586;50.122;18.972;2024-03-07T09:24:09;99179.09;;;2.62;51.46
41040;BME280;48586;50.122;18.972;2024-03-07T09:27:17;99187.47;;;2.70;51.58
41040;BME280;48586;50.122;18.972;2024-03-07T09:30:25;99189.84;;;2.74;50.84
41040;BME280;48586;50.122;18.972;2024-03-07T09:33:32;99186.34;;;2.74;50.88
41040;BME280;48586;50.122;18.972;2024-03-07T09:36:41;99191.06;;;2.69;50.23
41040;BME280;48586;50.122;18.972;2024-03-07T09:39:49;99188.50;;;2.67;50.35
41040;BME280;48586;50.122;18.972;2024-03-07T09:42:56;99186.09;;;2.63;50.14
41040;BME280;48586;50.122;18.972;2024-03-07T09:46:06;99194.78;;;2.65;50.45
41040;BME280;48586;50.122;18.972;2024-03-07T09:49:14;99190.44;;;2.64;50.61
41040;BME280;48586;50.122;18.972;2024-03-07T09:52:21;99190.88;;;2.72;50.99
41040;BME280;48586;50.122;18.972;2024-03-07T09:55:31;99194.91;;;2.79;50.56
41040;BME280;48586;50.122;18.972;2024-03-07T09:58:37;99197.91;;;2.89;50.56
41040;BME280;48586;50.122;18.972;2024-03-07T10:01:47;99185.09;;;2.97;50.53
41040;BME280;48586;50.122;18.972;2024-03-07T10:04:57;99185.53;;;3.05;50.06
41040;BME280;48586;50.122;18.972;2024-03-07T10:08:04;99191.53;;;3.08;49.78
41040;BME280;48586;50.122;18.972;2024-03-07T10:11:11;99186.13;;;3.10;49.86
41040;BME280;48586;50.122;18.972;2024-03-07T10:14:16;99193.91;;;3.13;49.94
41040;BME280;48586;50.122;18.972;2024-03-07T10:17:23;99194.56;;;3.17;49.68
41040;BME280;48586;50.122;18.972;2024-03-07T10:20:29;99194.84;;;3.12;49.19
41040;BME280;48586;50.122;18.972;2024-03-07T10:23:34;99198.44;;;3.11;49.56
41040;BME280;48586;50.122;18.972;2024-03-07T10:26:43;99204.41;;;3.15;49.77
41040;BME280;48586;50.122;18.972;2024-03-07T10:29:48;99200.63;;;3.19;49.52
41040;BME280;48586;50.122;18.972;2024-03-07T10:32:56;99205.06;;;3.18;49.48
41040;BME280;48586;50.122;18.972;2024-03-07T10:36:02;99208.41;;;3.22;49.18
41040;BME280;48586;50.122;18.972;2024-03-07T10:39:11;99211.56;;;3.28;49.63
41040;BME280;48586;50.122;18.972;2024-03-07T10:42:29;99214.81;;;3.33;49.45
41040;BME280;48586;50.122;18.972;2024-03-07T10:45:44;99211.31;;;3.33;48.97
41040;BME280;48586;50.122;18.972;2024-03-07T10:48:55;99212.78;;;3.23;49.28
41040;BME280;48586;50.122;18.972;2024-03-07T10:52:12;99212.16;;;3.18;49.18
41040;BME280;48586;50.122;18.972;2024-03-07T10:55:29;99218.81;;;3.25;49.41
41040;BME280;48586;50.122;18.972;2024-03-07T10:58:57;99215.50;;;3.21;49.14
41040;BME280;48586;50.122;18.972;2024-03-07T11:02:17;99209.88;;;3.11;49.49
41040;BME280;48586;50.122;18.972;2024-03-07T11:05:30;99201.84;;;3.13;49.66
41040;BME280;48586;50.122;18.972;2024-03-07T11:08:37;99208.06;;;3.12;49.31
41040;BME280;48586;50.122;18.972;2024-03-07T11:11:43;99208.06;;;3.12;49.71
41040;BME280;48586;50.122;18.972;2024-03-07T11:14:53;99205.06;;;3.18;49.54
41040;BME280;48586;50.122;18.972;2024-03-07T11:18:01;99198.41;;;3.27;49.27
41040;BME280;48586;50.122;18.972;2024-03-07T11:21:06;99209.19;;;3.24;48.96
41040;BME280;48586;50.122;18.972;2024-03-07T11:24:23;99203.88;;;3.24;49.55
41040;BME280;48586;50.122;18.972;2024-03-07T11:27:30;99200.97;;;3.28;48.86
41040;BME280;48586;50.122;18.972;2024-03-07T11:30:38;99197.06;;;3.20;48.73
41040;BME280;48586;50.122;18.972;2024-03-07T11:34:14;99205.06;;;3.18;49.50
41040;BME280;48586;50.122;18.972;2024-03-07T11:37:38;99199.88;;;3.17;49.41
41040;BME280;48586;50.122;18.972;2024-03-07T11:40:50;99207.47;;;3.23;49.28
41040;BME280;48586;50.122;18.972;2024-03-07T11:43:59;99204.16;;;3.19;49.26
41040;BME280;48586;50.122;18.972;2024-03-07T11:47:10;99201.91;;;3.27;49.08
41040;BME280;48586;50.122;18.972;2024-03-07T11:50:18;99203.38;;;3.33;49.35
41040;BME280;48586;50.122;18.972;2024-03-07T11:53:22;99199.53;;;3.38;49.06
41040;BME280;48586;50.122;18.972;2024-03-07T11:56:28;99193.91;;;3.45;48.80
41040;BME280;48586;50.122;18.972;2024-03-07T11:59:34;99197.22;;;3.48;48.73
41040;BME280;48586;50.122;18.972;2024-03-07T12:02:42;99202.66;;;3.61;48.56
41040;BME280;48586;50.122;18.972;2024-03-07T12:05:50;99194.72;;;3.61;47.75
41040;BME280;48586;50.122;18.972;2024-03-07T12:08:56;99196.34;;;3.63;47.44
41040;BME280;48586;50.122;18.972;2024-03-07T12:12:03;99197.22;;;3.64;47.89
41040;BME280;48586;50.122;18.972;2024-03-07T12:15:11;99192.84;;;3.63;47.80
41040;BME280;48586;50.122;18.972;2024-03-07T12:18:24;99189.41;;;3.61;47.76
41040;BME280;48586;50.122;18.972;2024-03-07T12:21:31;99189.69;;;3.56;47.74
41040;BME280;48586;50.122;18.972;2024-03-07T12:24:36;99191.94;;;3.48;48.12
41040;BME280;48586;50.122;18.972;2024-03-07T12:27:42;99191.59;;;3.54;48.09
41040;BME280;48586;50.122;18.972;2024-03-07T12:30:51;99196.88;;;3.54;48.00
41040;BME280;48586;50.122;18.972;2024-03-07T12:34:02;99187.41;;;3.50;47.92
41040;BME280;48586;50.122;18.972;2024-03-07T12:37:09;99186.47;;;3.51;47.94
41040;BME280;48586;50.122;18.972;2024-03-07T12:40:16;99178.78;;;3.47;48.06
41040;BME280;48586;50.122;18.972;2024-03-07T12:43:24;99183.50;;;3.42;48.23
41040;BME280;48586;50.122;18.972;2024-03-07T12:46:30;99189.66;;;3.42;48.00
41040;BME280;48586;50.122;18.972;2024-03-07T12:49:37;99194.34;;;3.37;48.51
41040;BME280;48586;50.122;18.972;2024-03-07T12:52:44;99193.63;;;3.33;48.50
41040;BME280;48586;50.122;18.972;2024-03-07T12:55:51;99195.44;;;3.33;48.78
41040;BME280;48586;50.122;18.972;2024-03-07T12:58:57;99194.50;;;3.34;48.71
41040;BME280;48586;50.122;18.972;2024-03-07T13:02:03;99197.56;;;3.26;48.30
41040;BME280;48586;50.122;18.972;2024-03-07T13:05:12;99195.53;;;3.31;48.52
41040;BME280;48586;50.122;18.972;2024-03-07T13:08:19;99203.31;;;3.34;48.45
41040;BME280;48586;50.122;18.972;2024-03-07T13:11:28;99196.38;;;3.32;48.10
41040;BME280;48586;50.122;18.972;2024-03-07T13:14:33;99190.22;;;3.31;48.59
41040;BME280;48586;50.122;18.972;2024-03-07T13:17:39;99184.00;;;3.32;48.83
41040;BME280;48586;50.122;18.972;2024-03-07T13:20:47;99187.84;;;3.43;49.03
41040;BME280;48586;50.122;18.972;2024-03-07T13:23:53;99187.47;;;3.49;48.71
41040;BME280;48586;50.122;18.972;2024-03-07T13:26:59;99182.03;;;3.52;48.12
41040;BME280;48586;50.122;18.972;2024-03-07T13:30:07;99191.78;;;3.51;48.36
41040;BME280;48586;50.122;18.972;2024-03-07T13:33:23;99188.00;;;3.55;48.64
41040;BME280;48586;50.122;18.972;2024-03-07T13:36:32;99188.66;;;3.59;47.91
41040;BME280;48586;50.122;18.972;2024-03-07T13:39:39;99188.00;;;3.55;48.05
41040;BME280;48586;50.122;18.972;2024-03-07T13:42:45;99186.38;;;3.53;47.81
41040;BME280;48586;50.122;18.972;2024-03-07T13:45:52;99188.09;;;3.54;48.01
41040;BME280;48586;50.122;18.972;2024-03-07T13:48:58;99188.84;;;3.56;48.00
41040;BME280;48586;50.122;18.972;2024-03-07T13:52:11;99187.16;;;3.55;48.19
41040;BME280;48586;50.122;18.972;2024-03-07T13:55:20;99188.50;;;3.62;48.22
41040;BME280;48586;50.122;18.972;2024-03-07T13:58:50;99193.72;;;3.63;48.21
41040;BME280;48586;50.122;18.972;2024-03-07T14:06:21;99193.44;;;3.68;48.18
41040;BME280;48586;50.122;18.972;2024-03-07T14:14:00;99187.28;;;3.67;47.66
41040;BME280;48586;50.122;18.972;2024-03-07T14:25:43;99197.66;;;3.56;47.28
41040;BME280;48586;50.122;18.972;2024-03-07T14:29:12;99192.69;;;3.50;47.45
41040;BME280;48586;50.122;18.972;2024-03-07T14:32:25;99205.25;;;3.47;47.61
41040;BME280;48586;50.122;18.972;2024-03-07T14:39:06;99194.25;;;3.38;47.15
41040;BME280;48586;50.122;18.972;2024-03-07T14:42:19;99190.41;;;3.44;47.42
41040;BME280;48586;50.122;18.972;2024-03-07T14:45:32;99188.19;;;3.52;47.37
41040;BME280;48586;50.122;18.972;2024-03-07T14:48:40;99185.25;;;3.57;46.54
41040;BME280;48586;50.122;18.972;2024-03-07T14:51:47;99184.72;;;3.66;46.76
41040;BME280;48586;50.122;18.972;2024-03-07T14:54:55;99179.84;;;3.74;46.32
41040;BME280;48586;50.122;18.972;2024-03-07T14:58:03;99178.72;;;3.78;45.85
41040;BME280;48586;50.122;18.972;2024-03-07T15:01:10;99184.00;;;3.78;46.16
41040;BME280;48586;50.122;18.972;2024-03-07T15:04:17;99176.25;;;3.75;46.14
41040;BME280;48586;50.122;18.972;2024-03-07T15:07:22;99180.59;;;3.76;46.01
41040;BME280;48586;50.122;18.972;2024-03-07T15:10:31;99182.88;;;3.82;46.20
41040;BME280;48586;50.122;18.972;2024-03-07T15:13:40;99176.47;;;3.86;45.55
41040;BME280;48586;50.122;18.972;2024-03-07T15:16:47;99175.97;;;3.80;45.75
41040;BME280;48586;50.122;18.972;2024-03-07T15:19:52;99175.97;;;3.80;46.00
41040;BME280;48586;50.122;18.972;2024-03-07T15:22:59;99177.75;;;3.79;45.93
41040;BME280;48586;50.122;18.972;2024-03-07T15:26:04;99178.53;;;3.81;45.87
41040;BME280;48586;50.122;18.972;2024-03-07T15:29:12;99187.25;;;3.83;45.83
41040;BME280;48586;50.122;18.972;2024-03-07T15:32:22;99181.00;;;3.84;45.74
41040;BME280;48586;50.122;18.972;2024-03-07T15:35:28;99178.16;;;3.87;45.61
41040;BME280;48586;50.122;18.972;2024-03-07T15:38:34;99174.56;;;3.88;45.75
41040;BME280;48586;50.122;18.972;2024-03-07T15:41:40;99180.81;;;3.87;45.89
41040;BME280;48586;50.122;18.972;2024-03-07T15:44:48;99184.22;;;3.89;45.82
41040;BME280;48586;50.122;18.972;2024-03-07T15:47:55;99188.88;;;3.86;45.53
41040;BME280;48586;50.122;18.972;2024-03-07T15:51:02;99175.81;;;3.83;45.61
41040;BME280;48586;50.122;18.972;2024-03-07T15:54:09;99179.66;;;3.77;45.80
41040;BME280;48586;50.122;18.972;2024-03-07T15:57:19;99176.91;;;3.79;45.88
41040;BME280;48586;50.122;18.972;2024-03-07T16:00:28;99175.13;;;3.79;45.59
41040;BME280;48586;50.122;18.972;2024-03-07T16:03:34;99179.09;;;3.72;45.12
41040;BME280;48586;50.122;18.972;2024-03-07T16:06:43;99181.13;;;3.67;45.67
41040;BME280;48586;50.122;18.972;2024-03-07T16:09:47;99187.28;;;3.67;45.60
41040;BME280;48586;50.122;18.972;2024-03-07T16:12:56;99177.63;;;3.66;45.68
41040;BME280;48586;50.122;18.972;2024-03-07T16:16:06;99189.59;;;3.58;45.34
41040;BME280;48586;50.122;18.972;2024-03-07T16:19:11;99190.84;;;3.52;45.49
41040;BME280;48586;50.122;18.972;2024-03-07T16:22:17;99187.47;;;3.49;45.64
41040;BME280;48586;50.122;18.972;2024-03-07T16:25:24;99188.63;;;3.45;45.73
41040;BME280;48586;50.122;18.972;2024-03-07T16:28:30;99184.44;;;3.40;45.95
41040;BME280;48586;50.122;18.972;2024-03-07T16:31:40;99196.84;;;3.40;45.81
41040;BME280;48586;50.122;18.972;2024-03-07T16:34:45;99196.97;;;3.37;45.53
41040;BME280;48586;50.122;18.972;2024-03-07T16:37:53;99197.22;;;3.32;45.70
41040;BME280;48586;50.122;18.972;2024-03-07T16:41:00;99201.56;;;3.33;45.56
41040;BME280;48586;50.122;18.972;2024-03-07T16:44:09;99202.53;;;3.32;45.46
41040;BME280;48586;50.122;18.972;2024-03-07T16:47:17;99201.91;;;3.27;45.65
41040;BME280;48586;50.122;18.972;2024-03-07T16:50:29;99197.13;;;3.18;45.45
41040;BME280;48586;50.122;18.972;2024-03-07T16:53:37;99205.59;;;3.09;45.55